EW5009 Weather Reports


Display with metric or nautical units.
time (UTC)temp
F
wind
direction
speed
MPH
gust
MPH
rain 1hr
in
rain 24hr
in
rain mn
in
humidity
%
barometer
mb
20181020204503 50 199 12.0 19.0 0.00 0.07 0.07 83 1004.6
20181020203004 50 189 14.0 24.0 0.00 0.07 0.07 83 1004.7
20181020201502 50 222 16.0 29.0 0.00 0.07 0.07 82 1004.7
20181020200137 50 201 11.0 25.0 0.00 0.07 0.07 84 1004.7
20181020194636 50 220 15.0 21.0 0.00 0.07 0.07 85 1004.8
20181020193220 49 192 15.0 24.0 0.00 0.07 0.07 85 1005.2
20181020191720 49 190 12.0 18.0 0.00 0.07 0.07 87 1005.5
20181020190138 49 194 14.0 22.0 0.00 0.07 0.07 86 1005.7
20181020184618 49 215 17.0 30.0 0.00 0.07 0.07 87 1006.1
20181020183136 49 192 12.0 25.0 0.00 0.07 0.07 90 1006.1
20181020181627 49 192 14.0 27.0 0.00 0.07 0.07 91 1006.2
20181020180118 49 188 12.0 22.0 0.00 0.07 0.07 92 1006.5
20181020174616 49 186 10.0 17.0 0.00 0.07 0.07 94 1006.8
20181020173112 48 217 9.0 18.0 0.00 0.07 0.07 94 1007.2
20181020171623 48 150 11.0 16.0 0.00 0.07 0.07 95 1007.6
20181020170101 48 158 10.0 20.0 0.00 0.07 0.07 95 1007.7
20181020164633 48 221 13.0 20.0 0.00 0.07 0.07 96 1007.9
20181020163105 47 213 8.0 17.0 0.00 0.07 0.07 96 1008.2
20181020161627 47 205 12.0 21.0 0.00 0.07 0.07 96 1008.3
20181020160102 47 190 12.0 19.0 0.00 0.07 0.07 96 1008.5
20181020154600 47 173 11.0 23.0 0.00 0.07 0.07 96 1008.5
20181020153043 47 228 13.0 21.0 0.00 0.07 0.07 96 1008.8
20181020150058 47 194 12.0 29.0 0.00 0.07 0.07 97 1008.9
20181020144609 46 211 10.0 20.0 0.00 0.07 0.07 96 1009.0
20181020143101 46 222 13.0 23.0 0.00 0.07 0.07 96 1009.0
20181020141600 46 208 13.0 24.0 0.00 0.07 0.07 96 1009.0
20181020140056 46 203 12.0 24.0 0.00 0.07 0.07 96 1008.9
20181020134549 47 196 17.0 23.0 0.00 0.07 0.07 96 1009.0
20181020133036 47 205 12.0 20.0 0.00 0.07 0.07 96 1008.9
20181020131525 47 178 12.0 22.0 0.00 0.07 0.07 96 1008.8
20181020130056 47 207 15.0 22.0 0.00 0.07 0.07 96 1009.1
20181020124525 46 183 12.0 24.0 0.00 0.07 0.07 96 1009.0
20181020123034 47 202 15.0 22.0 0.00 0.07 0.07 96 1009.0
20181020121519 47 180 12.0 20.0 0.00 0.07 0.07 96 1008.8
20181020114530 47 191 12.0 19.0 0.00 0.07 0.07 96 1008.9
20181020113021 47 198 13.0 21.0 0.00 0.07 0.07 96 1008.9
20181020111536 47 211 14.0 23.0 0.00 0.07 0.07 95 1008.8
20181020110010 47 215 13.0 24.0 0.00 0.07 0.07 95 1008.9
20181020104509 47 163 13.0 25.0 0.00 0.07 0.07 95 1008.8
20181020103026 47 202 16.0 25.0 0.00 0.07 0.07 95 1008.9
20181020101501 47 175 13.0 19.0 0.00 0.07 0.07 94 1008.9
20181020100148 47 205 12.0 22.0 0.00 0.07 0.07 94 1008.9
20181020094644 48 181 9.0 18.0 0.00 0.07 0.07 94 1008.9
20181020093322 48 212 11.0 20.0 0.00 0.07 0.07 94 1008.8
20181020091639 48 179 11.0 20.0 0.00 0.07 0.07 94 1008.7
20181020090228 48 236 11.0 21.0 0.01 0.07 0.07 94 1008.7
20181020084627 48 190 10.0 23.0 0.01 0.07 0.07 94 1008.6
20181020083232 48 223 16.0 23.0 0.01 0.07 0.07 94 1008.6
20181020081732 49 186 11.0 22.0 0.01 0.07 0.07 95 1008.6
20181020080131 49 198 14.0 26.0 0.00 0.06 0.06 95 1009.1
20181020074619 49 200 12.0 22.0 0.01 0.06 0.06 95 1009.2
20181020073112 49 207 12.0 24.0 0.02 0.06 0.06 95 1009.5
20181020071547 49 204 10.0 21.0 0.03 0.06 0.06 95 1009.7
20181020070054 50 206 13.0 20.0 0.04 0.06 0.06 95 1010.1
20181020064622 50 234 13.0 23.0 0.04 0.05 0.05 95 1010.3
20181020063052 50 213 8.0 14.0 0.04 0.04 0.04 95 1010.4
20181020061550 50 178 12.0 17.0 0.03 0.03 0.03 95 1010.8
20181020060031 50 204 9.0 19.0 0.02 0.02 0.02 94 1010.9
20181020054546 50 197 12.0 19.0 0.01 0.01 0.01 94 1011.1
20181020053052 50 169 12.0 18.0 0.00 0.00 0.00 94 1011.1
20181020051605 50 183 13.0 25.0 0.00 0.00 0.00 94 1011.4
20181020050057 50 196 11.0 23.0 0.00 0.00 0.00 93 1011.3
20181020044637 50 194 13.0 17.0 0.00 0.00 0.00 92 1011.5
20181020043027 51 187 11.0 18.0 0.00 0.00 0.00 91 1011.7
20181020041555 51 215 10.0 18.0 0.00 0.00 0.00 88 1012.0
20181020040043 52 209 15.0 28.0 0.00 0.00 0.00 85 1012.3
20181020034528 53 178 16.0 24.0 0.00 0.00 0.00 79 1012.5
20181020033013 54 213 13.0 27.0 0.00 0.00 0.00 75 1013.0
20181020031521 55 169 20.0 30.0 0.00 0.00 0.00 71 1013.2
20181020030019 54 175 14.0 22.0 0.00 0.00 0.00 66 1012.9
20181020024504 54 190 7.0 15.0 0.00 0.00 0.00 63 1013.1
20181020023004 54 188 7.0 11.0 0.00 0.00 0.00 65 1013.2
20181020020136 54 132 3.0 10.0 0.00 0.00 0.00 62 1013.5
20181020014639 54 156 4.0 9.0 0.00 0.00 0.00 61 1013.7
20181020013216 54 158 2.0 8.0 0.00 0.00 0.00 60 1014.2
20181020011711 54 182 2.0 7.0 0.00 0.00 0.00 58 1014.5
20181020010153 54 171 5.0 10.0 0.00 0.00 0.00 58 1015.0
20181020004640 54 105 3.0 9.0 0.00 0.00 0.00 56 1015.3
20181020003100 54 184 3.0 6.0 0.00 0.00 0.00 55 1015.7
20181020001625 55 172 1.0 6.0 0.00 0.00 0.00 54 1015.7
20181020000116 55 196 1.0 5.0 0.00 0.00 0.00 53 1016.1
20181019234614 55 154 0.0 4.0 0.00 0.00 0.00 51 1016.2
20181019233135 56 198 0.0 5.0 0.00 0.00 0.00 49 1016.3
20181019231603 56 140 0.0 5.0 0.00 0.00 0.00 46 1016.3
20181019230120 57 82 0.0 2.0 0.00 0.00 0.00 44 1016.3
20181019224603 57 187 0.0 5.0 0.00 0.00 0.00 41 1016.5
20181019223056 57 171 3.0 5.0 0.00 0.00 0.00 41 1016.8
20181019221546 58 202 0.0 7.0 0.00 0.00 0.00 40 1017.0
20181019220118 59 188 2.0 7.0 0.00 0.00 0.00 38 1017.4
20181019214545 59 207 2.0 9.0 0.00 0.00 0.00 39 1017.5
20181019213045 60 177 3.0 8.0 0.00 0.00 0.00 42 1017.9
20181019211535 60 181 4.0 10.0 0.00 0.00 0.00 44 1018.1
20181019210057 60 190 3.0 6.0 0.00 0.00 0.00 43 1017.9